Time;durP1;ratioP1;P1;durP2;ratioP2;P2;SDS_P1;SDS_P2;PMS_P1;PMS_P2;Temp;Humidity;BMP_temperature;BMP_pressure;BME280_temperature;BME280_humidity;BME280_pressure;Samples;Min_cycle;Max_cycle;Signal;HPM_P1;HPM_P2
2022/05/16 00:00:35;;;;;;;11.77;10.53;;;18.30;99.90;;;;;;5052915;28;20449;-62
2022/05/16 00:03:05;;;;;;;14.23;11.07;;;18.40;99.90;;;;;;5053143;28;20775;-61
2022/05/16 00:05:33;;;;;;;12.37;9.30;;;18.40;99.90;;;;;;5052913;28;20623;-60
2022/05/16 00:08:00;;;;;;;15.40;11.27;;;18.50;99.90;;;;;;5053204;28;20454;-62
2022/05/16 00:10:28;;;;;;;13.20;12.00;;;18.30;99.90;;;;;;5053180;28;20462;-61
2022/05/16 00:12:55;;;;;;;12.67;11.43;;;18.20;99.90;;;;;;5052652;28;20949;-62
2022/05/16 00:15:25;;;;;;;12.80;11.50;;;18.20;99.90;;;;;;5052702;28;20449;-60
2022/05/16 00:17:52;;;;;;;11.80;10.57;;;18.30;99.90;;;;;;5052935;28;20462;-61
2022/05/16 00:20:19;;;;;;;11.70;10.47;;;18.40;99.90;;;;;;5052856;28;20445;-63
2022/05/16 00:22:46;;;;;;;12.93;10.87;;;18.50;99.90;;;;;;5052788;28;20969;-61
2022/05/16 00:25:16;;;;;;;13.30;12.00;;;18.50;99.90;;;;;;5052291;28;20490;-61
2022/05/16 00:27:45;;;;;;;12.37;11.07;;;18.60;99.90;;;;;;5052692;28;20484;-62
2022/05/16 00:30:15;;;;;;;12.63;11.37;;;18.50;99.90;;;;;;5052353;28;20456;-61
2022/05/16 00:32:42;;;;;;;11.93;10.73;;;18.50;99.90;;;;;;5052336;28;20478;-62
2022/05/16 00:35:12;;;;;;;12.83;11.53;;;18.50;99.90;;;;;;5052375;28;20442;-60
2022/05/16 00:37:39;;;;;;;14.43;10.63;;;18.50;99.90;;;;;;5052499;28;20453;-63
2022/05/16 00:40:09;;;;;;;11.10;10.10;;;18.50;99.90;;;;;;5052481;28;20476;-62
2022/05/16 00:42:36;;;;;;;10.90;9.80;;;18.50;99.90;;;;;;5051875;28;21025;-62
2022/05/16 00:45:06;;;;;;;11.20;10.10;;;18.50;99.90;;;;;;5052422;28;20453;-62
2022/05/16 00:47:33;;;;;;;11.33;10.23;;;18.40;99.90;;;;;;5052450;28;20454;-61
2022/05/16 00:50:01;;;;;;;11.47;10.37;;;18.40;99.90;;;;;;5052398;28;20457;-61
2022/05/16 00:52:31;;;;;;;11.33;10.13;;;18.50;99.90;;;;;;5052216;28;20474;-60
2022/05/16 00:55:01;;;;;;;12.37;11.00;;;18.40;99.90;;;;;;5052049;28;20449;-62
2022/05/16 00:57:37;;;;;;;13.23;10.33;;;18.40;99.90;;;;;;5052016;28;20450;-59
2022/05/16 01:00:09;;;;;;;11.90;10.70;;;18.30;99.90;;;;;;5052046;28;20453;-61
2022/05/16 01:05:24;;;;;;;11.77;10.57;;;18.20;99.90;;;;;;5051794;28;20488;-63
2022/05/16 01:07:51;;;;;;;10.90;9.77;;;18.20;99.90;;;;;;5051840;28;20515;-63
2022/05/16 01:10:21;;;;;;;13.20;11.03;;;18.20;99.90;;;;;;5051015;28;20442;-61
2022/05/16 01:12:50;;;;;;;12.00;10.73;;;18.20;99.90;;;;;;5051963;28;20560;-62
2022/05/16 01:15:28;;;;;;;11.90;10.70;;;18.20;99.90;;;;;;5051872;28;20457;-62
2022/05/16 01:17:56;;;;;;;11.37;10.17;;;18.00;99.90;;;;;;5051506;28;20460;-61
2022/05/16 01:20:23;;;;;;;15.13;10.73;;;18.00;99.90;;;;;;5051757;28;20457;-60
2022/05/16 01:22:53;;;;;;;12.80;11.47;;;18.00;99.90;;;;;;5051838;28;20446;-62
2022/05/16 01:25:27;;;;;;;13.33;9.77;;;17.90;99.90;;;;;;5051547;28;20853;-62
2022/05/16 01:27:56;;;;;;;12.67;11.30;;;17.90;99.90;;;;;;5051800;28;20827;-62
2022/05/16 01:30:26;;;;;;;16.90;10.60;;;17.90;99.90;;;;;;5051499;28;20485;-62
2022/05/16 01:32:53;;;;;;;13.90;10.97;;;17.80;99.90;;;;;;5051631;28;20449;-60
2022/05/16 01:35:22;;;;;;;14.33;11.00;;;17.80;99.90;;;;;;5051426;28;20465;-59
2022/05/16 01:40:37;;;;;;;13.17;10.60;;;17.80;99.90;;;;;;5051298;28;20524;-62
2022/05/16 01:43:04;;;;;;;12.57;10.90;;;17.70;99.90;;;;;;5051107;28;20994;-62
2022/05/16 01:45:31;;;;;;;12.63;11.03;;;17.60;99.90;;;;;;5050995;28;20478;-62
2022/05/16 01:47:58;;;;;;;12.77;11.50;;;17.50;99.90;;;;;;5051290;28;20839;-60
2022/05/16 01:50:26;;;;;;;12.30;11.00;;;17.60;99.90;;;;;;5051241;28;20868;-63
2022/05/16 01:52:54;;;;;;;12.67;11.47;;;17.60;99.90;;;;;;5051331;28;20458;-63
2022/05/16 01:55:21;;;;;;;11.33;10.17;;;17.70;99.90;;;;;;5050872;28;20454;-62
2022/05/16 01:57:48;;;;;;;13.70;11.30;;;17.70;99.90;;;;;;5050881;28;20937;-63
2022/05/16 02:00:17;;;;;;;13.90;12.60;;;17.70;99.90;;;;;;5050999;28;20456;-62
2022/05/16 02:02:45;;;;;;;12.97;11.67;;;17.60;99.90;;;;;;5050834;28;20478;-63
2022/05/16 02:05:14;;;;;;;13.80;12.50;;;17.40;99.90;;;;;;5051232;28;20472;-63
2022/05/16 02:07:42;;;;;;;18.93;12.53;;;17.40;99.90;;;;;;5050668;28;20869;-62
2022/05/16 02:10:13;;;;;;;15.83;14.43;;;17.30;99.90;;;;;;5050764;28;20506;-62
2022/05/16 02:12:40;;;;;;;15.47;13.87;;;17.20;99.90;;;;;;5050660;28;20473;-63
2022/05/16 02:15:10;;;;;;;17.47;13.50;;;17.00;99.90;;;;;;5050647;28;20445;-61
2022/05/16 02:17:38;;;;;;;14.03;11.90;;;17.10;99.90;;;;;;5050549;28;20446;-62
2022/05/16 02:20:06;;;;;;;13.33;12.00;;;17.20;99.90;;;;;;5050520;28;20524;-60
2022/05/16 02:25:19;;;;;;;12.90;11.57;;;17.30;99.90;;;;;;5050434;28;20792;-60
2022/05/16 02:27:47;;;;;;;14.13;12.10;;;17.50;99.90;;;;;;5050417;28;20494;-61
2022/05/16 02:30:14;;;;;;;15.40;11.67;;;17.50;99.90;;;;;;5050525;28;21273;-62
2022/05/16 02:32:41;;;;;;;12.77;10.53;;;17.50;99.90;;;;;;5050149;28;20481;-60
2022/05/16 02:35:10;;;;;;;12.13;10.73;;;17.50;99.90;;;;;;5050353;28;20449;-62
2022/05/16 02:37:37;;;;;;;12.57;11.27;;;17.50;99.90;;;;;;5050190;28;20454;-62
2022/05/16 02:40:06;;;;;;;12.33;10.83;;;17.50;99.90;;;;;;5050108;28;20454;-59
2022/05/16 02:42:35;;;;;;;12.33;11.13;;;17.50;99.90;;;;;;5049339;28;20493;-63
2022/05/16 02:45:03;;;;;;;11.20;10.10;;;17.40;99.90;;;;;;5050287;28;20454;-62
2022/05/16 02:47:30;;;;;;;13.73;11.10;;;17.40;99.90;;;;;;5049621;28;20576;-62
2022/05/16 02:49:57;;;;;;;15.30;11.20;;;17.30;99.90;;;;;;5049910;28;20458;-60
2022/05/16 02:52:24;;;;;;;13.97;11.07;;;17.20;99.90;;;;;;5050034;28;20493;-60
2022/05/16 02:54:51;;;;;;;12.90;11.40;;;17.20;99.90;;;;;;5050126;28;20450;-63
2022/05/16 02:57:19;;;;;;;13.30;11.93;;;17.20;99.90;;;;;;5049770;28;20450;-60
2022/05/16 02:59:47;;;;;;;12.40;11.10;;;17.30;99.90;;;;;;5049811;28;20453;-63
2022/05/16 03:02:14;;;;;;;13.63;12.23;;;17.20;99.90;;;;;;5049567;28;20473;-62
2022/05/16 03:04:41;;;;;;;12.70;10.50;;;17.20;99.90;;;;;;5049494;28;20462;-63
2022/05/16 03:07:08;;;;;;;13.57;11.93;;;17.20;99.90;;;;;;5049788;28;20490;-61
2022/05/16 03:09:35;;;;;;;14.23;11.43;;;17.30;99.90;;;;;;5049661;28;20457;-61
2022/05/16 03:12:03;;;;;;;15.93;11.93;;;17.30;99.90;;;;;;5049729;28;20474;-62
2022/05/16 03:14:30;;;;;;;13.20;10.33;;;17.20;99.90;;;;;;5049310;28;20922;-63
2022/05/16 03:16:58;;;;;;;13.27;10.90;;;17.10;99.90;;;;;;5049514;28;20453;-63
2022/05/16 03:19:25;;;;;;;12.10;9.70;;;17.20;99.90;;;;;;5049499;28;20957;-63
2022/05/16 03:21:52;;;;;;;10.93;9.83;;;17.20;99.90;;;;;;5049135;28;20477;-63
2022/05/16 03:24:19;;;;;;;12.13;10.80;;;17.20;99.90;;;;;;5049624;28;20457;-61
2022/05/16 03:26:46;;;;;;;12.23;9.63;;;17.20;99.90;;;;;;5049623;28;20481;-63
2022/05/16 03:29:14;;;;;;;12.50;10.30;;;17.20;99.90;;;;;;5049326;28;20450;-61
2022/05/16 03:31:41;;;;;;;9.87;8.87;;;17.30;99.90;;;;;;5049513;28;20580;-66
2022/05/16 03:34:12;;;;;;;10.20;9.20;;;17.20;99.90;;;;;;5048883;28;20458;-65
2022/05/16 03:36:40;;;;;;;11.20;8.97;;;17.20;99.90;;;;;;5049540;28;20454;-65
2022/05/16 03:42:01;;;;;;;10.03;8.90;;;17.30;99.90;;;;;;5024400;28;20871;-65
2022/05/16 03:44:28;;;;;;;10.53;8.60;;;17.30;99.90;;;;;;5049472;28;20989;-64
2022/05/16 03:46:55;;;;;;;9.73;7.90;;;17.30;99.90;;;;;;5049313;28;20493;-64
2022/05/16 03:49:24;;;;;;;10.43;8.50;;;17.20;99.90;;;;;;5049534;28;20453;-65
2022/05/16 03:51:51;;;;;;;11.40;7.80;;;17.10;99.90;;;;;;5049089;28;20478;-63
2022/05/16 03:54:19;;;;;;;9.53;8.27;;;17.10;99.90;;;;;;5049270;28;20515;-65
2022/05/16 03:56:46;;;;;;;9.53;8.40;;;17.20;99.90;;;;;;5049113;28;20461;-65
2022/05/16 03:59:13;;;;;;;11.60;9.80;;;17.10;99.90;;;;;;5049407;28;20465;-62
2022/05/16 04:01:40;;;;;;;11.13;8.53;;;17.00;99.90;;;;;;5049067;28;20477;-64
2022/05/16 04:04:08;;;;;;;10.10;8.53;;;17.00;99.90;;;;;;5049110;28;20449;-65
2022/05/16 04:06:37;;;;;;;11.50;10.30;;;16.90;99.90;;;;;;5048612;28;20492;-64
2022/05/16 04:09:04;;;;;;;10.53;9.43;;;16.90;99.90;;;;;;5048822;28;21020;-66
2022/05/16 04:11:34;;;;;;;10.00;9.00;;;16.80;99.90;;;;;;5048925;28;20478;-64
2022/05/16 04:14:01;;;;;;;8.33;7.53;;;16.80;99.90;;;;;;5049199;28;20489;-64
2022/05/16 04:16:28;;;;;;;9.50;8.60;;;16.80;99.90;;;;;;5049257;28;20454;-63
2022/05/16 04:18:55;;;;;;;10.43;9.00;;;16.90;99.90;;;;;;5048760;28;20468;-66
2022/05/16 04:21:22;;;;;;;10.23;8.60;;;16.80;99.90;;;;;;5048682;28;20486;-65
2022/05/16 04:23:50;;;;;;;10.70;9.20;;;16.80;99.90;;;;;;5048603;28;20476;-63
2022/05/16 04:26:18;;;;;;;10.73;9.63;;;16.80;99.90;;;;;;5048881;28;20457;-66
2022/05/16 04:28:45;;;;;;;9.20;8.30;;;16.80;99.90;;;;;;5049080;28;20460;-63
2022/05/16 04:31:12;;;;;;;9.33;8.30;;;16.70;99.90;;;;;;5048945;28;20911;-66
2022/05/16 04:33:39;;;;;;;10.10;8.17;;;16.60;99.90;;;;;;5048948;28;20450;-62
2022/05/16 04:36:06;;;;;;;9.50;8.23;;;16.70;99.90;;;;;;5049012;28;20461;-64
2022/05/16 04:38:33;;;;;;;10.13;7.67;;;16.80;99.90;;;;;;5048594;28;20478;-65
2022/05/16 04:43:47;;;;;;;11.43;8.83;;;17.00;99.90;;;;;;5049007;28;20464;-65
2022/05/16 04:46:14;;;;;;;13.07;8.97;;;17.20;99.90;;;;;;5051056;28;20493;-63
2022/05/16 04:48:41;;;;;;;11.50;8.53;;;17.20;99.90;;;;;;5052185;28;20473;-64
2022/05/16 04:51:08;;;;;;;10.37;7.50;;;17.30;99.90;;;;;;5052030;28;20473;-65
2022/05/16 04:53:35;;;;;;;9.87;8.47;;;17.40;99.90;;;;;;5052319;28;20434;-66
2022/05/16 04:56:04;;;;;;;10.30;8.37;;;17.40;99.90;;;;;;5052309;28;20446;-64
2022/05/16 04:58:33;;;;;;;9.60;8.63;;;17.60;99.90;;;;;;5051759;28;20536;-65
2022/05/16 05:01:00;;;;;;;10.40;8.97;;;17.80;99.90;;;;;;5051517;28;21007;-66
2022/05/16 05:03:27;;;;;;;10.40;8.60;;;18.00;99.90;;;;;;5051637;28;20465;-66
2022/05/16 05:05:54;;;;;;;11.50;9.30;;;18.20;99.90;;;;;;5052046;28;20458;-65
2022/05/16 05:08:21;;;;;;;11.20;9.20;;;18.30;99.90;;;;;;5051689;28;20846;-65
2022/05/16 05:16:21;;;;;;;10.70;9.73;;;18.70;99.90;;;;;;5051797;28;20552;-67
2022/05/16 05:18:48;;;;;;;12.30;9.43;;;18.90;99.90;;;;;;5051967;28;20473;-64
2022/05/16 05:21:15;;;;;;;11.20;10.03;;;19.00;99.90;;;;;;5051752;28;20477;-63
2022/05/16 05:23:42;;;;;;;10.93;9.83;;;19.20;99.90;;;;;;5051859;28;20458;-65
2022/05/16 05:26:12;;;;;;;11.23;9.90;;;19.20;99.90;;;;;;5051598;28;20519;-67
2022/05/16 05:28:41;;;;;;;9.97;8.97;;;19.30;99.90;;;;;;5051140;28;20616;-65
2022/05/16 05:31:12;;;;;;;13.00;10.40;;;19.40;99.90;;;;;;5050929;28;20474;-63
2022/05/16 05:33:39;;;;;;;11.23;10.03;;;19.40;99.90;;;;;;5051567;28;20485;-61
2022/05/16 05:36:08;;;;;;;15.57;10.60;;;19.40;99.90;;;;;;5051635;28;20461;-66
2022/05/16 05:38:36;;;;;;;12.30;11.07;;;19.30;99.90;;;;;;5051213;28;20450;-64
2022/05/16 05:41:03;;;;;;;11.27;10.17;;;19.40;99.90;;;;;;5051014;28;20508;-65
2022/05/16 05:43:31;;;;;;;13.53;11.10;;;19.50;99.90;;;;;;5051205;28;20971;-66
2022/05/16 05:45:59;;;;;;;13.10;11.90;;;19.60;99.90;;;;;;5051168;28;20800;-66
2022/05/16 05:48:27;;;;;;;12.10;10.80;;;19.80;99.90;;;;;;5050890;28;20489;-65
2022/05/16 05:50:54;;;;;;;11.97;10.80;;;20.00;99.90;;;;;;5050812;28;20564;-65
2022/05/16 05:53:21;;;;;;;11.83;10.63;;;20.10;99.90;;;;;;5050751;28;20454;-65
2022/05/16 05:55:48;;;;;;;16.00;11.67;;;20.20;99.90;;;;;;5050611;28;20450;-65
2022/05/16 05:58:16;;;;;;;14.37;12.90;;;20.40;99.90;;;;;;5051183;28;20446;-66
2022/05/16 06:00:44;;;;;;;15.47;13.87;;;20.40;99.90;;;;;;5050949;28;20473;-66
2022/05/16 06:03:13;;;;;;;14.10;11.80;;;20.40;99.90;;;;;;5050452;28;20465;-66
2022/05/16 06:05:40;;;;;;;16.93;13.70;;;20.30;99.90;;;;;;5050447;28;20465;-65
2022/05/16 06:08:07;;;;;;;16.13;12.27;;;20.30;99.90;;;;;;5050674;28;20493;-66
2022/05/16 06:10:34;;;;;;;17.93;13.20;;;20.20;99.90;;;;;;5050499;28;20815;-65
2022/05/16 06:13:02;;;;;;;13.40;12.10;;;20.30;99.90;;;;;;5050558;28;20518;-66
2022/05/16 06:15:29;;;;;;;13.43;12.17;;;20.30;99.90;;;;;;5050733;28;20458;-65
2022/05/16 06:17:56;;;;;;;13.27;11.60;;;20.30;99.90;;;;;;5050355;28;20512;-65
2022/05/16 06:20:25;;;;;;;16.50;12.30;;;20.50;99.90;;;;;;5050339;28;20572;-65
2022/05/16 06:22:52;;;;;;;16.10;12.13;;;20.70;99.90;;;;;;5050724;28;20458;-66
2022/05/16 06:25:33;;;;;;;12.53;11.40;;;20.90;99.90;;;;;;5050615;28;20454;-65
2022/05/16 06:28:02;;;;;;;14.30;11.47;;;21.20;99.90;;;;;;5050160;28;20536;-66
2022/05/16 06:30:30;;;;;;;12.17;10.87;;;21.40;99.90;;;;;;5050130;28;20465;-68
2022/05/16 06:32:57;;;;;;;15.83;11.20;;;21.60;99.90;;;;;;5050083;28;20462;-69
2022/05/16 06:35:26;;;;;;;13.03;10.03;;;21.70;99.90;;;;;;5050310;28;20930;-66
2022/05/16 06:37:53;;;;;;;15.80;11.13;;;21.70;99.90;;;;;;5050513;28;20442;-69
2022/05/16 06:40:22;;;;;;;15.13;12.00;;;21.70;99.90;;;;;;5050467;28;20461;-67
2022/05/16 06:42:49;;;;;;;21.77;11.63;;;21.90;99.90;;;;;;5049664;28;20493;-67
2022/05/16 06:45:17;;;;;;;13.90;11.00;;;22.20;99.90;;;;;;5050289;28;20458;-67
2022/05/16 06:47:45;;;;;;;14.70;12.23;;;22.60;99.90;;;;;;5050019;28;20485;-66
2022/05/16 06:50:13;;;;;;;16.67;11.60;;;22.70;99.90;;;;;;5050299;28;20458;-68
2022/05/16 06:52:42;;;;;;;13.30;10.27;;;22.80;99.90;;;;;;5050073;28;20528;-66
2022/05/16 06:55:10;;;;;;;15.83;12.30;;;22.90;99.90;;;;;;5050343;28;20457;-65
2022/05/16 06:57:38;;;;;;;14.43;12.07;;;23.10;99.90;;;;;;5050035;28;20449;-65
2022/05/16 07:00:08;;;;;;;14.93;12.30;;;23.30;99.90;;;;;;5049999;28;21000;-66
2022/05/16 07:02:35;;;;;;;13.13;11.83;;;23.10;99.90;;;;;;5049955;28;20886;-66
2022/05/16 07:05:02;;;;;;;14.93;12.37;;;23.20;99.90;;;;;;5050236;28;20458;-66
2022/05/16 07:07:29;;;;;;;14.20;12.20;;;23.40;99.90;;;;;;5049086;28;20497;-64
2022/05/16 07:09:58;;;;;;;17.10;13.60;;;23.60;99.90;;;;;;5036246;28;20856;-64
2022/05/16 07:12:25;;;;;;;15.50;13.27;;;23.60;99.90;;;;;;5029820;28;21192;-64
2022/05/16 07:14:52;;;;;;;15.17;12.57;;;23.70;99.90;;;;;;5030013;28;20459;-66
2022/05/16 07:17:19;;;;;;;13.57;12.27;;;23.80;99.90;;;;;;5029528;28;20659;-65
2022/05/16 07:19:49;;;;;;;14.77;13.27;;;24.00;99.90;;;;;;5029851;28;20458;-68
2022/05/16 07:22:22;;;;;;;18.40;14.53;;;24.20;99.90;;;;;;5028977;28;20482;-67
2022/05/16 07:24:50;;;;;;;16.73;15.00;;;24.40;99.90;;;;;;5029148;28;20528;-68
2022/05/16 07:30:05;;;;;;;14.87;12.73;;;24.70;99.90;;;;;;5029642;28;20576;-64
2022/05/16 07:32:36;;;;;;;15.80;14.20;;;24.80;99.90;;;;;;5029561;28;20486;-66
2022/05/16 07:35:04;;;;;;;15.67;13.80;;;24.90;99.90;;;;;;5028639;28;20455;-65
2022/05/16 07:37:32;;;;;;;13.80;12.40;;;25.00;99.90;;;;;;5026767;28;20461;-63
2022/05/16 07:39:59;;;;;;;13.13;11.73;;;24.90;98.60;;;;;;5027612;28;20546;-63
2022/05/16 07:42:28;;;;;;;16.33;12.77;;;25.00;98.00;;;;;;5027260;28;20524;-63
2022/05/16 07:44:55;;;;;;;19.37;17.23;;;25.20;96.90;;;;;;5027992;28;20458;-64
2022/05/16 07:47:22;;;;;;;14.47;13.07;;;25.10;96.30;;;;;;5027015;28;20446;-64
2022/05/16 07:49:49;;;;;;;14.83;12.33;;;25.10;95.80;;;;;;5025993;28;20458;-64
2022/05/16 07:52:16;;;;;;;13.13;11.70;;;25.30;94.40;;;;;;5025987;28;20478;-64
2022/05/16 07:54:43;;;;;;;14.93;12.50;;;25.30;94.30;;;;;;5026415;28;20454;-63
2022/05/16 07:57:10;;;;;;;14.80;11.97;;;25.30;94.20;;;;;;5025825;28;20461;-63
2022/05/16 07:59:40;;;;;;;13.73;10.97;;;25.20;94.40;;;;;;5026170;28;20465;-67
2022/05/16 08:02:07;;;;;;;12.77;10.60;;;25.40;94.60;;;;;;5026628;28;20558;-63
2022/05/16 08:04:34;;;;;;;12.10;10.53;;;25.70;94.10;;;;;;5027058;28;20982;-64
2022/05/16 08:07:04;;;;;;;14.20;10.80;;;25.80;93.60;;;;;;5029161;28;20458;-64
2022/05/16 08:12:24;;;;;;;14.13;9.50;;;26.10;92.80;;;;;;5029415;28;20812;-63
2022/05/16 08:14:52;;;;;;;12.13;9.60;;;26.20;92.00;;;;;;5027723;28;20477;-63
2022/05/16 08:17:19;;;;;;;11.43;8.70;;;26.40;91.00;;;;;;5028721;28;20457;-63
2022/05/16 08:19:47;;;;;;;10.40;9.30;;;26.50;90.80;;;;;;5030953;28;20454;-64
2022/05/16 08:22:14;;;;;;;13.07;7.83;;;26.60;89.30;;;;;;5033063;28;20553;-62
2022/05/16 08:24:41;;;;;;;8.90;5.73;;;26.60;82.70;;;;;;5032775;28;20459;-63
2022/05/16 08:27:09;;;;;;;7.87;5.20;;;26.80;78.20;;;;;;5032376;28;20785;-62
2022/05/16 08:29:36;;;;;;;9.20;6.03;;;27.00;70.90;;;;;;5032377;28;20486;-63
2022/05/16 08:32:05;;;;;;;9.87;5.90;;;27.20;69.70;;;;;;5032589;28;21236;-63
2022/05/16 08:34:32;;;;;;;12.83;5.80;;;27.30;69.80;;;;;;5032907;28;20450;-63
2022/05/16 08:39:55;;;;;;;12.57;6.40;;;27.50;68.90;;;;;;5032437;28;20429;-62
2022/05/16 08:42:28;;;;;;;6.30;4.90;;;27.30;67.90;;;;;;5031801;28;20494;-62
2022/05/16 08:45:00;;;;;;;8.70;4.50;;;27.50;66.60;;;;;;5032295;28;20489;-62
2022/05/16 08:47:45;;;;;;;11.70;5.50;;;27.40;62.40;;;;;;5032278;28;20465;-63
2022/05/16 08:50:18;;;;;;;8.60;4.33;;;27.50;63.10;;;;;;5032054;28;20979;-63
2022/05/16 08:52:51;;;;;;;9.57;5.50;;;27.80;62.70;;;;;;5031761;28;20577;-65
2022/05/16 08:55:28;;;;;;;7.17;4.97;;;28.00;61.90;;;;;;5032269;28;20549;-64
2022/05/16 08:57:58;;;;;;;10.13;3.40;;;28.00;60.50;;;;;;5032558;28;20443;-63
2022/05/16 09:00:32;;;;;;;7.23;4.17;;;28.30;58.70;;;;;;5032275;28;20455;-62
2022/05/16 09:03:03;;;;;;;6.27;4.20;;;28.40;58.30;;;;;;5031889;28;20480;-63
2022/05/16 09:05:36;;;;;;;9.10;4.03;;;28.50;56.20;;;;;;5032055;28;20935;-63
2022/05/16 09:08:07;;;;;;;7.77;4.20;;;28.00;52.50;;;;;;5032099;28;20486;-65
2022/05/16 09:10:47;;;;;;;10.30;3.83;;;27.50;55.20;;;;;;5032043;28;20808;-65
2022/05/16 09:13:27;;;;;;;6.33;3.70;;;27.30;54.80;;;;;;5031766;28;20799;-64
2022/05/16 09:16:01;;;;;;;7.10;3.33;;;27.20;55.00;;;;;;5031753;28;20458;-64
2022/05/16 09:18:39;;;;;;;6.63;4.03;;;27.30;54.20;;;;;;5031897;28;20450;-62
2022/05/16 09:21:14;;;;;;;6.50;3.47;;;27.60;54.70;;;;;;5031544;28;20474;-62
2022/05/16 09:23:50;;;;;;;5.67;2.93;;;27.80;54.40;;;;;;5031410;28;20549;-62
2022/05/16 09:26:37;;;;;;;5.40;3.10;;;27.90;50.40;;;;;;5031756;28;20458;-63
2022/05/16 09:29:15;;;;;;;5.83;3.17;;;27.80;49.20;;;;;;5028993;28;20490;-62
2022/05/16 09:31:45;;;;;;;6.50;3.00;;;27.90;49.20;;;;;;5030528;28;20475;-63
2022/05/16 09:34:15;;;;;;;6.70;3.40;;;28.10;48.20;;;;;;5031231;28;20447;-63
2022/05/16 09:36:45;;;;;;;6.17;3.37;;;28.30;48.40;;;;;;5031398;28;20455;-63
2022/05/16 09:39:19;;;;;;;6.63;2.73;;;28.50;48.10;;;;;;5031351;28;20465;-62
2022/05/16 09:41:54;;;;;;;5.37;3.13;;;28.70;47.30;;;;;;5030472;28;20490;-62
2022/05/16 09:44:25;;;;;;;5.10;3.20;;;28.80;47.90;;;;;;5031328;28;20884;-62
2022/05/16 09:47:18;;;;;;;7.13;3.30;;;28.90;48.70;;;;;;5031222;28;20455;-62
2022/05/16 09:50:04;;;;;;;6.30;2.60;;;28.80;48.60;;;;;;5031289;28;20560;-63
2022/05/16 09:52:33;;;;;;;6.57;2.97;;;28.60;45.90;;;;;;5031347;28;20479;-63
2022/05/16 09:55:02;;;;;;;9.20;2.33;;;28.50;44.60;;;;;;5030999;28;20557;-63
2022/05/16 09:57:30;;;;;;;6.10;3.03;;;28.40;45.50;;;;;;5031090;28;21017;-63
2022/05/16 10:00:15;;;;;;;6.60;3.07;;;28.70;46.20;;;;;;5030865;28;20454;-63
2022/05/16 10:02:43;;;;;;;5.90;2.80;;;28.70;44.60;;;;;;5030952;28;20481;-63
2022/05/16 10:05:26;;;;;;;6.30;2.30;;;28.80;43.70;;;;;;5030778;28;20447;-67
2022/05/16 10:08:00;;;;;;;5.20;2.50;;;28.90;43.90;;;;;;5030683;28;21026;-66
2022/05/16 10:10:33;;;;;;;5.53;2.63;;;28.80;42.70;;;;;;5030727;28;20450;-66
2022/05/16 10:13:00;;;;;;;5.43;2.47;;;28.90;43.70;;;;;;5030949;28;20552;-66
2022/05/16 10:15:28;;;;;;;6.80;2.80;;;29.00;43.90;;;;;;5030957;28;20534;-66
2022/05/16 10:17:57;;;;;;;7.63;2.47;;;29.10;43.50;;;;;;5030434;28;20455;-67
2022/05/16 10:20:29;;;;;;;5.80;2.23;;;29.20;43.20;;;;;;5030310;28;20466;-66
2022/05/16 10:23:02;;;;;;;10.40;2.50;;;29.20;40.60;;;;;;5030441;28;20978;-66
2022/05/16 10:25:33;;;;;;;6.20;3.03;;;29.10;42.10;;;;;;5030440;28;20465;-65
2022/05/16 10:28:04;;;;;;;12.23;2.67;;;29.10;42.60;;;;;;5030484;28;20455;-64
2022/05/16 10:33:24;;;;;;;7.57;3.10;;;29.40;43.20;;;;;;5030073;28;20489;-63
2022/05/16 10:33:27;;;;;;;5.00;2.77;;;29.50;43.30;;;;;;5029867;28;20469;-65
2022/05/16 10:36:00;;;;;;;5.20;2.73;;;29.80;44.30;;;;;;5030584;28;20501;-65
2022/05/16 10:38:34;;;;;;;4.47;2.17;;;30.20;43.80;;;;;;5030342;28;20866;-65
2022/05/16 10:41:04;;;;;;;5.37;2.30;;;30.40;42.60;;;;;;5030003;28;20837;-65
2022/05/16 10:43:39;;;;;;;10.90;2.50;;;30.20;41.70;;;;;;5030276;28;20462;-65
2022/05/16 10:46:11;;;;;;;4.60;2.50;;;30.20;42.40;;;;;;5030250;28;20458;-65
2022/05/16 10:48:45;;;;;;;8.33;2.43;;;30.20;41.50;;;;;;5029816;28;20989;-64
2022/05/16 10:51:16;;;;;;;4.80;2.60;;;30.10;42.60;;;;;;5029824;28;20474;-65
2022/05/16 10:53:56;;;;;;;6.73;2.23;;;30.20;43.70;;;;;;5029959;28;20451;-66
2022/05/16 10:56:36;;;;;;;9.03;3.30;;;30.20;43.20;;;;;;5030117;28;20524;-64
2022/05/16 10:59:12;;;;;;;4.73;2.40;;;30.20;43.40;;;;;;5030042;28;20554;-64
2022/05/16 11:01:44;;;;;;;4.93;1.90;;;30.30;43.40;;;;;;5029913;28;20565;-65
2022/05/16 11:04:45;;;;;;;5.07;2.33;;;30.50;42.50;;;;;;5029380;28;20482;-64
2022/05/16 11:07:25;;;;;;;7.17;2.87;;;30.60;42.40;;;;;;5030069;28;20449;-65
2022/05/16 11:10:00;;;;;;;6.10;2.17;;;30.60;42.00;;;;;;5029220;28;20629;-65
2022/05/16 11:12:35;;;;;;;6.53;2.60;;;30.60;42.10;;;;;;5029404;28;20458;-66
2022/05/16 11:15:10;;;;;;;7.23;2.13;;;30.60;40.60;;;;;;5029707;28;20529;-65
2022/05/16 11:17:48;;;;;;;4.83;2.30;;;30.50;40.80;;;;;;5029272;28;20447;-64
2022/05/16 11:20:27;;;;;;;5.10;2.83;;;30.70;41.50;;;;;;5029234;28;20871;-63
2022/05/16 11:23:03;;;;;;;6.43;2.47;;;30.50;41.10;;;;;;5029489;28;20454;-66
2022/05/16 11:25:39;;;;;;;6.07;2.40;;;30.30;41.80;;;;;;5036530;22;20494;-68
2022/05/16 11:28:14;;;;;;;4.77;2.70;;;30.40;41.80;;;;;;5029003;28;20958;-66
2022/05/16 11:30:47;;;;;;;5.63;2.90;;;30.50;42.40;;;;;;5044318;28;20490;-66
2022/05/16 11:33:27;;;;;;;6.47;2.40;;;30.80;42.60;;;;;;5049094;28;20481;-66
2022/05/16 11:35:58;;;;;;;4.20;2.40;;;31.10;42.80;;;;;;5049393;28;20465;-66
2022/05/16 11:38:37;;;;;;;6.40;2.23;;;31.30;41.10;;;;;;5049356;28;20536;-64
2022/05/16 11:41:25;;;;;;;8.60;3.20;;;31.50;40.80;;;;;;5048909;28;20982;-66
2022/05/16 11:44:00;;;;;;;6.77;2.83;;;31.60;40.80;;;;;;5049364;28;20464;-64
2022/05/16 11:46:36;;;;;;;5.67;2.70;;;31.80;40.70;;;;;;5049186;28;21256;-66
2022/05/16 11:49:20;;;;;;;5.20;2.33;;;31.80;41.60;;;;;;5049151;28;20989;-66
2022/05/16 11:52:06;;;;;;;8.13;2.97;;;31.60;39.20;;;;;;5049297;28;20446;-65
2022/05/16 11:54:38;;;;;;;6.30;2.40;;;31.50;40.20;;;;;;5051081;28;20458;-68
2022/05/16 12:02:45;;;;;;;4.97;1.80;;;32.20;38.50;;;;;;5053125;28;20433;-66
2022/05/16 12:05:14;;;;;;;5.30;2.10;;;32.10;39.00;;;;;;5053224;28;20460;-68
2022/05/16 12:07:46;;;;;;;7.00;2.30;;;32.20;39.00;;;;;;5053312;28;20461;-69
2022/05/16 12:10:33;;;;;;;3.93;1.70;;;32.10;38.20;;;;;;5052859;28;20489;-65
2022/05/16 12:13:24;;;;;;;5.83;2.27;;;32.10;37.70;;;;;;5052822;28;20446;-67
2022/05/16 12:16:18;;;;;;;4.00;1.90;;;32.40;38.00;;;;;;5053222;28;20518;-65
2022/05/16 12:18:48;;;;;;;6.57;2.20;;;32.50;38.10;;;;;;5053005;28;20446;-67
2022/05/16 12:21:28;;;;;;;9.10;3.03;;;32.40;37.80;;;;;;5053077;28;20505;-66
2022/05/16 12:24:06;;;;;;;5.30;2.37;;;32.40;38.80;;;;;;5052898;28;20515;-65
2022/05/16 12:27:03;;;;;;;4.67;2.50;;;32.80;38.30;;;;;;5052978;28;20499;-73
2022/05/16 12:29:43;;;;;;;5.97;2.30;;;32.80;38.00;;;;;;5042608;28;20489;-72
2022/05/16 12:32:22;;;;;;;5.00;2.03;;;33.00;37.90;;;;;;5052414;28;20472;-66
2022/05/16 12:34:51;;;;;;;6.80;2.03;;;33.00;37.60;;;;;;5052638;28;20458;-64
2022/05/16 12:37:20;;;;;;;5.17;1.70;;;32.90;35.70;;;;;;5052891;28;20446;-67
2022/05/16 12:40:03;;;;;;;8.13;1.63;;;32.90;35.00;;;;;;5052432;28;20477;-64
2022/05/16 12:42:57;;;;;;;5.80;1.80;;;32.80;34.70;;;;;;5052405;28;20454;-66
2022/05/16 12:46:05;;;;;;;4.07;1.67;;;33.00;35.60;;;;;;5052411;28;20946;-65
2022/05/16 12:49:04;;;;;;;5.10;2.20;;;33.20;34.90;;;;;;5052246;28;20862;-66
2022/05/16 12:51:56;;;;;;;5.70;1.80;;;33.00;33.90;;;;;;5043887;28;20462;-64
2022/05/16 12:54:47;;;;;;;4.90;1.87;;;33.10;34.30;;;;;;5051909;28;20461;-65
2022/05/16 12:57:53;;;;;;;4.60;2.10;;;33.30;34.20;;;;;;5052041;28;20454;-66
2022/05/16 13:00:24;;;;;;;5.43;2.10;;;33.50;34.60;;;;;;5026957;28;20477;-64
2022/05/16 13:03:14;;;;;;;3.70;1.70;;;33.60;34.90;;;;;;5051848;28;20929;-64
2022/05/16 13:05:46;;;;;;;6.40;1.70;;;33.70;35.00;;;;;;5050837;28;20997;-64
2022/05/16 13:08:25;;;;;;;7.53;1.50;;;33.70;32.20;;;;;;5051788;28;20456;-64
2022/05/16 13:11:04;;;;;;;3.60;1.53;;;33.90;31.40;;;;;;5051985;28;20586;-64
2022/05/16 13:13:47;;;;;;;5.73;1.90;;;34.10;33.10;;;;;;5051976;28;20486;-65
2022/05/16 13:16:22;;;;;;;5.33;2.00;;;34.30;33.60;;;;;;5051380;28;20456;-65
2022/05/16 13:18:56;;;;;;;3.90;1.77;;;34.10;34.00;;;;;;5051739;28;20460;-63
2022/05/16 13:21:33;;;;;;;5.77;2.17;;;34.10;34.60;;;;;;5051315;28;20457;-66
2022/05/16 13:24:00;;;;;;;5.80;2.30;;;33.90;33.00;;;;;;5051849;28;20457;-66
2022/05/16 13:29:26;;;;;;;6.07;2.30;;;33.80;35.10;;;;;;5051726;28;20485;-64
2022/05/16 13:31:55;;;;;;;6.40;2.10;;;33.80;34.10;;;;;;5051785;28;20461;-64